Time;durP1;ratioP1;P1;durP2;ratioP2;P2;SDS_P1;SDS_P2;PMS_P1;PMS_P2;Temp;Humidity;BMP_temperature;BMP_pressure;BME280_temperature;BME280_humidity;BME280_pressure;Samples;Min_cycle;Max_cycle;Signal;HPM_P1;HPM_P2
2023/10/08 00:01:33;;;;;;;20.13;8.77;;;17.70;99.90;;;;;;5109530;28;20027;-61
2023/10/08 00:04:00;;;;;;;21.25;8.93;;;17.50;99.90;;;;;;5113739;28;20456;-60
2023/10/08 00:06:27;;;;;;;21.85;9.00;;;17.40;99.90;;;;;;5112299;28;20035;-60
2023/10/08 00:08:59;;;;;;;16.60;8.65;;;17.50;99.90;;;;;;5113685;28;20453;-60
2023/10/08 00:11:29;;;;;;;21.67;9.27;;;17.10;99.90;;;;;;5103789;28;20032;-60
2023/10/08 00:13:56;;;;;;;20.02;8.55;;;17.30;99.90;;;;;;5093579;28;20092;-61
2023/10/08 00:16:22;;;;;;;21.38;8.98;;;17.10;99.90;;;;;;5113130;28;20040;-61
2023/10/08 00:18:51;;;;;;;17.25;9.27;;;17.20;99.90;;;;;;5102898;28;20036;-59
2023/10/08 00:21:27;;;;;;;18.63;9.05;;;17.10;99.90;;;;;;5092655;28;20501;-61
2023/10/08 00:23:59;;;;;;;21.75;8.40;;;17.00;99.90;;;;;;5093175;28;20035;-62
2023/10/08 00:26:31;;;;;;;14.45;6.15;;;17.20;99.90;;;;;;5093228;28;20024;-61
2023/10/08 00:28:59;;;;;;;12.85;5.35;;;17.10;99.90;;;;;;5092441;28;20040;-59
2023/10/08 00:31:32;;;;;;;12.73;4.57;;;17.00;99.90;;;;;;5111362;28;20047;-60
2023/10/08 00:33:58;;;;;;;9.07;4.43;;;16.80;99.90;;;;;;5111957;28;20051;-62
2023/10/08 00:36:24;;;;;;;7.82;3.53;;;16.60;99.90;;;;;;5113276;28;20036;-60
2023/10/08 00:39:00;;;;;;;5.57;1.83;;;16.40;99.90;;;;;;5111699;28;20040;-60
2023/10/08 00:41:30;;;;;;;4.30;1.20;;;16.20;99.90;;;;;;5092992;28;20050;-59
2023/10/08 00:43:59;;;;;;;2.92;0.98;;;16.10;99.90;;;;;;5092350;28;20044;-60
2023/10/08 00:46:27;;;;;;;3.10;0.75;;;15.80;99.90;;;;;;5092024;28;20074;-59
2023/10/08 00:48:57;;;;;;;4.78;0.85;;;15.60;99.90;;;;;;5092602;28;20121;-60
2023/10/08 00:51:31;;;;;;;2.95;0.77;;;15.40;99.90;;;;;;5110135;28;20074;-61
2023/10/08 00:54:08;;;;;;;1.95;0.80;;;15.40;99.90;;;;;;5112852;28;20036;-60
2023/10/08 00:59:49;;;;;;;4.03;1.25;;;15.00;99.90;;;;;;5094569;28;20075;-58
2023/10/08 01:02:19;;;;;;;2.63;1.20;;;15.10;99.90;;;;;;5076438;28;20036;-59
2023/10/08 01:04:45;;;;;;;3.53;1.27;;;14.90;99.90;;;;;;5092536;28;20036;-61
2023/10/08 01:07:18;;;;;;;3.13;1.40;;;14.90;99.90;;;;;;5092286;28;20050;-60
2023/10/08 01:10:00;;;;;;;2.90;1.25;;;15.00;99.90;;;;;;5110652;28;20051;-61
2023/10/08 01:15:05;;;;;;;4.13;1.60;;;14.80;99.90;;;;;;5112598;28;20049;-60
2023/10/08 01:17:32;;;;;;;4.13;1.55;;;14.80;99.90;;;;;;5112154;28;20097;-61
2023/10/08 01:20:10;;;;;;;3.33;1.50;;;14.80;99.90;;;;;;5112291;28;20039;-59
2023/10/08 01:22:38;;;;;;;4.38;1.58;;;14.80;99.90;;;;;;5108829;28;20031;-60
2023/10/08 01:25:05;;;;;;;2.17;0.90;;;14.80;99.90;;;;;;5091158;28;20097;-59
2023/10/08 01:27:34;;;;;;;2.85;1.00;;;14.90;99.90;;;;;;5091055;28;20032;-59
2023/10/08 01:30:17;;;;;;;3.17;1.33;;;14.90;99.90;;;;;;5091432;28;20075;-59
2023/10/08 01:32:44;;;;;;;2.83;1.30;;;14.70;99.90;;;;;;5091919;28;20032;-58
2023/10/08 01:35:23;;;;;;;3.08;1.40;;;14.80;99.90;;;;;;5091752;28;20384;-60
2023/10/08 01:37:50;;;;;;;4.10;1.38;;;14.80;99.90;;;;;;5091603;28;20051;-59
2023/10/08 01:40:17;;;;;;;4.38;1.45;;;14.70;99.90;;;;;;5091670;28;20475;-61
2023/10/08 01:42:43;;;;;;;3.30;1.05;;;14.70;99.90;;;;;;5091369;28;20040;-60
2023/10/08 01:45:12;;;;;;;2.40;1.00;;;14.60;99.90;;;;;;5091505;28;20035;-59
2023/10/08 01:47:38;;;;;;;3.92;1.30;;;14.70;99.90;;;;;;5109964;28;20027;-61
2023/10/08 01:50:21;;;;;;;3.70;1.15;;;14.60;99.90;;;;;;5091257;28;20232;-60
2023/10/08 01:52:49;;;;;;;3.30;1.33;;;14.60;99.90;;;;;;5090451;28;20391;-60
2023/10/08 01:55:18;;;;;;;2.60;1.20;;;14.60;99.90;;;;;;5088147;28;20042;-60
2023/10/08 01:57:48;;;;;;;3.05;1.10;;;14.50;99.90;;;;;;5091374;28;20108;-61
2023/10/08 02:00:19;;;;;;;3.40;1.30;;;14.40;99.90;;;;;;5091550;28;20526;-59
2023/10/08 02:02:46;;;;;;;2.13;1.13;;;14.50;99.90;;;;;;5091493;28;20487;-59
2023/10/08 02:05:15;;;;;;;2.45;1.17;;;14.50;99.90;;;;;;5091084;28;20040;-59
2023/10/08 02:07:44;;;;;;;3.72;1.52;;;14.40;99.90;;;;;;5091057;28;20043;-59
2023/10/08 02:10:11;;;;;;;2.75;1.25;;;14.40;99.90;;;;;;5090357;28;20147;-59
2023/10/08 02:12:38;;;;;;;2.97;1.40;;;14.40;99.90;;;;;;5104935;28;20032;-60
2023/10/08 02:15:04;;;;;;;3.40;1.40;;;14.40;99.90;;;;;;5111124;28;20499;-59
2023/10/08 02:17:30;;;;;;;2.83;1.40;;;14.40;99.90;;;;;;5111411;28;20051;-61
2023/10/08 02:19:55;;;;;;;2.67;1.42;;;14.40;99.90;;;;;;5110672;28;20043;-61
2023/10/08 02:22:21;;;;;;;3.60;1.50;;;14.30;99.90;;;;;;5111461;28;20036;-61
2023/10/08 02:24:48;;;;;;;2.90;1.48;;;14.30;99.90;;;;;;5094744;28;20119;-59
2023/10/08 02:27:15;;;;;;;3.50;1.67;;;14.30;99.90;;;;;;5108770;28;20387;-60
2023/10/08 02:29:41;;;;;;;3.40;1.80;;;14.30;99.90;;;;;;5109498;28;20039;-61
2023/10/08 02:32:07;;;;;;;2.90;1.50;;;14.30;99.90;;;;;;5089818;28;20081;-60
2023/10/08 02:34:35;;;;;;;2.67;1.50;;;14.30;99.90;;;;;;5109172;28;20391;-59
2023/10/08 02:37:03;;;;;;;2.80;1.50;;;14.40;99.90;;;;;;5110914;28;20382;-60
2023/10/08 02:39:31;;;;;;;4.38;1.70;;;14.40;99.90;;;;;;5115311;28;20471;-62
2023/10/08 02:41:59;;;;;;;3.25;1.73;;;14.30;99.90;;;;;;5114604;28;20054;-60
2023/10/08 02:44:25;;;;;;;2.92;1.52;;;14.30;99.90;;;;;;5115346;28;20368;-61
2023/10/08 02:46:54;;;;;;;3.70;1.63;;;14.30;99.90;;;;;;5109123;28;20083;-60
2023/10/08 02:49:22;;;;;;;2.92;1.50;;;14.30;99.90;;;;;;5094490;28;20431;-61
2023/10/08 02:51:53;;;;;;;3.20;1.70;;;14.30;99.90;;;;;;5094087;28;20040;-61
2023/10/08 02:54:32;;;;;;;2.33;1.33;;;14.40;99.90;;;;;;5094563;28;20050;-60
2023/10/08 02:57:02;;;;;;;2.35;1.20;;;14.40;99.90;;;;;;5095121;28;20036;-61
2023/10/08 02:59:40;;;;;;;2.78;1.48;;;14.20;99.90;;;;;;5094883;28;20040;-60
2023/10/08 03:02:18;;;;;;;3.53;1.40;;;14.30;99.90;;;;;;5114908;28;20069;-58
2023/10/08 03:04:45;;;;;;;2.42;1.30;;;14.40;99.90;;;;;;5115275;28;20062;-59
2023/10/08 03:07:33;;;;;;;1.42;0.75;;;14.30;99.90;;;;;;5115106;28;20031;-59
2023/10/08 03:10:06;;;;;;;2.60;1.42;;;14.30;99.90;;;;;;5107989;28;20052;-60
2023/10/08 03:12:33;;;;;;;2.35;1.10;;;14.40;99.90;;;;;;5094305;28;20097;-61
2023/10/08 03:17:53;;;;;;;1.98;0.90;;;14.30;99.90;;;;;;5113477;28;20045;-60
2023/10/08 03:20:29;;;;;;;2.45;0.80;;;14.30;99.90;;;;;;5114388;28;20437;-61
2023/10/08 03:22:57;;;;;;;2.83;1.13;;;14.30;99.90;;;;;;5114852;28;20466;-61
2023/10/08 03:25:24;;;;;;;2.83;1.30;;;14.40;99.90;;;;;;5114597;28;20067;-60
2023/10/08 03:27:50;;;;;;;2.10;1.00;;;14.30;99.90;;;;;;5114501;28;20089;-58
2023/10/08 03:30:16;;;;;;;2.42;1.17;;;14.20;99.90;;;;;;5114612;28;20424;-61
2023/10/08 03:32:45;;;;;;;2.72;1.20;;;14.20;99.90;;;;;;5099218;28;20097;-62
2023/10/08 03:35:12;;;;;;;2.95;1.20;;;14.20;99.90;;;;;;5094192;28;20027;-61
2023/10/08 03:37:45;;;;;;;3.85;1.17;;;14.20;99.90;;;;;;5093606;28;20106;-58
2023/10/08 03:40:42;;;;;;;2.65;0.82;;;14.10;99.90;;;;;;5093993;28;20113;-62
2023/10/08 03:43:19;;;;;;;2.58;1.27;;;14.10;99.90;;;;;;5112617;28;20047;-61
2023/10/08 03:45:49;;;;;;;2.30;0.90;;;14.10;99.90;;;;;;5114484;28;20376;-60
2023/10/08 03:48:17;;;;;;;2.20;1.00;;;14.20;99.90;;;;;;5113352;28;20046;-60
2023/10/08 03:50:43;;;;;;;2.63;1.08;;;14.20;99.90;;;;;;5113360;28;20032;-59
2023/10/08 03:53:12;;;;;;;2.88;1.10;;;14.20;99.90;;;;;;5114217;27;20096;-60
2023/10/08 03:55:41;;;;;;;3.75;1.25;;;14.10;99.90;;;;;;5097148;28;20077;-58
2023/10/08 03:58:27;;;;;;;3.90;1.30;;;14.20;99.90;;;;;;5093676;28;20066;-59
2023/10/08 04:01:08;;;;;;;3.05;1.00;;;14.10;99.90;;;;;;5093045;28;20024;-62
2023/10/08 04:09:16;;;;;;;4.03;1.10;;;14.20;99.90;;;;;;5092724;28;19985;-59
2023/10/08 04:14:18;;;;;;;2.15;0.65;;;14.10;99.90;;;;;;5093471;28;20036;-59
2023/10/08 04:16:44;;;;;;;3.60;1.27;;;14.10;99.90;;;;;;5093297;28;20032;-60
2023/10/08 04:19:10;;;;;;;4.13;1.20;;;14.10;99.90;;;;;;5092898;28;20032;-59
2023/10/08 04:21:36;;;;;;;2.65;1.20;;;14.20;99.90;;;;;;5097737;28;20036;-58
2023/10/08 04:24:06;;;;;;;4.45;1.70;;;14.10;99.90;;;;;;5093127;28;20059;-59
2023/10/08 04:26:32;;;;;;;5.10;1.95;;;14.10;99.90;;;;;;5093196;28;20413;-60
2023/10/08 04:29:06;;;;;;;5.20;2.00;;;14.00;99.90;;;;;;5093415;28;20434;-60
2023/10/08 04:31:46;;;;;;;4.70;2.08;;;14.10;99.90;;;;;;5093276;28;20042;-60
2023/10/08 04:34:15;;;;;;;3.83;1.90;;;14.10;99.90;;;;;;5105460;28;20047;-60
2023/10/08 04:36:45;;;;;;;3.67;2.08;;;14.00;99.90;;;;;;5113481;28;20032;-60
2023/10/08 04:39:15;;;;;;;4.88;2.15;;;14.00;99.90;;;;;;5102999;28;20075;-60
2023/10/08 04:41:45;;;;;;;5.22;2.63;;;14.00;99.90;;;;;;5092692;28;20185;-60
2023/10/08 04:44:15;;;;;;;5.88;2.22;;;13.90;99.90;;;;;;5092549;28;20467;-59
2023/10/08 04:46:47;;;;;;;4.43;2.38;;;14.00;99.90;;;;;;5111372;28;20046;-60
2023/10/08 04:49:27;;;;;;;4.85;2.25;;;13.90;99.90;;;;;;5112962;28;20086;-62
2023/10/08 04:52:05;;;;;;;5.95;2.47;;;14.00;99.90;;;;;;5112705;28;20042;-61
2023/10/08 04:54:31;;;;;;;5.05;2.47;;;13.90;99.90;;;;;;5112633;28;20031;-61
2023/10/08 04:57:01;;;;;;;4.22;1.90;;;13.90;99.90;;;;;;5113114;28;20123;-59
2023/10/08 04:59:34;;;;;;;5.90;2.33;;;13.90;99.90;;;;;;5110530;27;20039;-60
2023/10/08 05:02:20;;;;;;;5.00;2.13;;;13.80;99.90;;;;;;5092425;28;20098;-61
2023/10/08 05:13:15;;;;;;;4.40;2.13;;;13.80;99.90;;;;;;5091142;28;20044;-59
2023/10/08 05:16:11;;;;;;;5.90;2.55;;;13.80;99.90;;;;;;5091957;28;20043;-60
2023/10/08 05:18:54;;;;;;;5.47;2.58;;;13.70;99.90;;;;;;5109809;28;20096;-58
2023/10/08 05:21:28;;;;;;;7.05;1.83;;;13.80;99.90;;;;;;5110368;28;20128;-58
2023/10/08 05:24:08;;;;;;;7.35;2.70;;;13.70;99.90;;;;;;5091694;28;20032;-62
2023/10/08 05:26:49;;;;;;;4.53;2.63;;;13.70;99.90;;;;;;5110685;28;20038;-60
2023/10/08 05:37:52;;;;;;;4.25;2.10;;;13.70;99.90;;;;;;5048888;28;20037;-62
2023/10/08 05:40:54;;;;;;;5.65;1.67;;;13.60;99.90;;;;;;5079720;28;20146;-61
2023/10/08 05:43:23;;;;;;;5.63;1.95;;;13.70;99.90;;;;;;5111507;28;20048;-59
2023/10/08 05:46:19;;;;;;;5.43;2.58;;;13.80;99.90;;;;;;5111966;28;20054;-61
2023/10/08 05:48:44;;;;;;;4.85;2.40;;;13.70;99.90;;;;;;5099617;28;21363;-62
2023/10/08 05:51:23;;;;;;;5.30;2.35;;;13.70;99.90;;;;;;5107996;28;20042;-60
2023/10/08 05:53:55;;;;;;;5.65;2.58;;;13.70;99.90;;;;;;5111925;28;20039;-59
2023/10/08 05:56:42;;;;;;;6.05;2.60;;;13.80;99.90;;;;;;5110549;28;20486;-59
2023/10/08 05:59:18;;;;;;;5.65;2.33;;;13.70;99.90;;;;;;5111367;28;20128;-60
2023/10/08 06:01:46;;;;;;;5.85;2.25;;;13.70;99.90;;;;;;5111848;28;20049;-59
2023/10/08 06:04:42;;;;;;;5.47;2.40;;;13.70;99.90;;;;;;5111517;28;20096;-65
2023/10/08 06:07:17;;;;;;;5.80;2.72;;;13.70;99.90;;;;;;5111469;28;20040;-60
2023/10/08 06:09:50;;;;;;;8.30;2.50;;;13.70;99.90;;;;;;5105196;28;20101;-60
2023/10/08 06:12:29;;;;;;;4.85;1.40;;;13.60;99.90;;;;;;5089817;28;20147;-60
2023/10/08 06:15:07;;;;;;;4.68;2.22;;;13.60;99.90;;;;;;5090415;28;20043;-59
2023/10/08 06:17:34;;;;;;;4.22;1.55;;;13.60;99.90;;;;;;5091064;28;20039;-60
2023/10/08 06:20:09;;;;;;;6.50;2.30;;;13.70;99.90;;;;;;5090042;28;20548;-59
2023/10/08 06:22:36;;;;;;;5.38;2.58;;;13.70;99.90;;;;;;5090939;28;20186;-60
2023/10/08 06:25:44;;;;;;;6.78;2.50;;;13.70;99.90;;;;;;5108834;28;20059;-60
2023/10/08 06:27:57;;;;;;;8.85;2.55;;;13.70;99.90;;;;;;5108006;28;20054;-59
2023/10/08 06:30:24;;;;;;;5.97;2.30;;;13.70;99.90;;;;;;5108609;28;20058;-62
2023/10/08 06:32:50;;;;;;;7.25;2.60;;;13.80;99.90;;;;;;5108393;28;20032;-60
2023/10/08 06:35:21;;;;;;;4.43;2.10;;;13.70;99.90;;;;;;5090706;28;20046;-61
2023/10/08 06:37:49;;;;;;;5.13;2.75;;;13.70;99.90;;;;;;5090671;28;20423;-59
2023/10/08 06:43:11;;;;;;;5.95;2.78;;;13.70;99.90;;;;;;5091066;28;20556;-59
2023/10/08 06:45:41;;;;;;;5.43;2.55;;;13.70;99.90;;;;;;5090841;28;20472;-59
2023/10/08 06:48:07;;;;;;;7.35;2.55;;;13.70;99.90;;;;;;5090993;28;20036;-59
2023/10/08 06:50:36;;;;;;;6.28;2.15;;;13.60;99.90;;;;;;5090191;28;20055;-59
2023/10/08 06:53:07;;;;;;;5.38;2.20;;;13.70;99.90;;;;;;5090867;28;20047;-61
2023/10/08 06:55:35;;;;;;;7.32;2.20;;;13.70;99.90;;;;;;5090532;28;20071;-61
2023/10/08 06:58:05;;;;;;;5.35;2.25;;;13.70;99.90;;;;;;5090409;28;20214;-59
2023/10/08 07:00:38;;;;;;;5.45;2.20;;;13.80;99.90;;;;;;5090696;28;20039;-60
2023/10/08 07:03:04;;;;;;;7.75;2.00;;;13.70;99.90;;;;;;5090773;28;20559;-59
2023/10/08 07:05:36;;;;;;;6.03;2.70;;;13.70;99.90;;;;;;5086282;28;20044;-59
2023/10/08 07:08:06;;;;;;;6.75;2.17;;;13.80;99.90;;;;;;5090408;28;20511;-61
2023/10/08 07:10:34;;;;;;;6.32;1.88;;;13.80;99.90;;;;;;5072109;28;20066;-61
2023/10/08 07:13:02;;;;;;;5.82;1.70;;;13.80;99.90;;;;;;5079403;28;20119;-59
2023/10/08 07:15:29;;;;;;;5.63;1.95;;;13.90;99.90;;;;;;5078827;28;20051;-59
2023/10/08 07:17:56;;;;;;;6.82;1.88;;;13.90;99.90;;;;;;5078512;28;20028;-59
2023/10/08 07:20:22;;;;;;;4.65;2.08;;;14.00;99.90;;;;;;5076783;28;20040;-60
2023/10/08 07:22:54;;;;;;;4.38;2.03;;;13.90;99.90;;;;;;5077439;28;22933;-58
2023/10/08 07:25:22;;;;;;;6.95;2.72;;;14.00;99.90;;;;;;5081755;28;20043;-61
2023/10/08 07:27:48;;;;;;;5.10;2.22;;;14.10;99.90;;;;;;5082741;28;20051;-60
2023/10/08 07:30:26;;;;;;;7.07;2.30;;;14.10;99.90;;;;;;5080635;28;20059;-60
2023/10/08 07:32:54;;;;;;;5.75;2.40;;;14.10;99.90;;;;;;5081821;28;20048;-61
2023/10/08 07:37:47;;;;;;;4.90;2.33;;;14.10;99.90;;;;;;5082177;28;20035;-61
2023/10/08 07:40:15;;;;;;;6.72;2.50;;;14.10;99.90;;;;;;5082455;28;20043;-59
2023/10/08 07:42:41;;;;;;;6.40;2.10;;;14.20;99.90;;;;;;5082424;28;20039;-61
2023/10/08 07:45:07;;;;;;;5.13;1.98;;;14.00;99.90;;;;;;5081503;28;20035;-60
2023/10/08 07:47:33;;;;;;;7.50;2.45;;;14.00;99.90;;;;;;5081745;28;20036;-61
2023/10/08 07:49:58;;;;;;;6.15;1.98;;;14.10;99.90;;;;;;5081520;28;20082;-59
2023/10/08 07:52:24;;;;;;;6.38;2.00;;;14.10;99.90;;;;;;5082584;28;20111;-60
2023/10/08 07:54:50;;;;;;;4.93;2.03;;;14.20;99.90;;;;;;5081961;28;20043;-60
2023/10/08 07:57:25;;;;;;;5.93;2.03;;;14.10;99.90;;;;;;5080970;28;20391;-60
2023/10/08 07:59:54;;;;;;;6.25;2.10;;;14.20;99.90;;;;;;5081716;28;20040;-62
2023/10/08 08:02:23;;;;;;;5.50;2.00;;;14.30;99.90;;;;;;5081278;28;20055;-59
2023/10/08 08:04:53;;;;;;;5.55;2.03;;;14.30;99.90;;;;;;5081108;28;20480;-59
2023/10/08 08:07:19;;;;;;;7.32;1.90;;;14.30;99.90;;;;;;5080746;28;20059;-61
2023/10/08 08:09:59;;;;;;;9.32;1.40;;;14.40;99.90;;;;;;5076511;28;20197;-60
2023/10/08 08:12:26;;;;;;;6.75;1.83;;;14.40;99.90;;;;;;5081833;28;20043;-61
2023/10/08 08:14:52;;;;;;;5.22;1.50;;;14.20;99.90;;;;;;5080050;28;20032;-61
2023/10/08 08:17:18;;;;;;;5.45;1.70;;;14.20;99.90;;;;;;5081519;28;20463;-62
2023/10/08 08:19:49;;;;;;;5.68;1.63;;;14.30;99.90;;;;;;5081778;28;20063;-59
2023/10/08 08:22:21;;;;;;;7.22;1.70;;;14.30;99.90;;;;;;5079198;28;20043;-62
2023/10/08 08:25:05;;;;;;;10.32;2.40;;;14.30;99.90;;;;;;5081147;28;20040;-61
2023/10/08 08:27:34;;;;;;;6.53;1.70;;;14.40;99.90;;;;;;5080439;28;20032;-60
2023/10/08 08:30:10;;;;;;;7.43;1.95;;;14.40;99.90;;;;;;5079792;28;20113;-60
2023/10/08 08:32:39;;;;;;;5.32;1.73;;;14.50;99.90;;;;;;5081589;28;20119;-60
2023/10/08 08:35:07;;;;;;;6.82;1.83;;;14.50;99.90;;;;;;5080504;28;20078;-60
2023/10/08 08:37:35;;;;;;;7.15;1.65;;;14.50;99.90;;;;;;5078732;28;20046;-61
2023/10/08 08:40:08;;;;;;;5.90;1.70;;;14.60;99.90;;;;;;5081331;28;20079;-60
2023/10/08 08:42:35;;;;;;;9.10;1.63;;;14.60;99.90;;;;;;5079852;28;20503;-59
2023/10/08 08:45:08;;;;;;;5.30;1.60;;;14.70;99.90;;;;;;5081108;28;20476;-62
2023/10/08 08:47:35;;;;;;;7.47;1.92;;;14.70;99.90;;;;;;5081366;28;20510;-59
2023/10/08 08:50:08;;;;;;;9.88;1.80;;;14.60;99.90;;;;;;5078035;28;20094;-58
2023/10/08 08:52:38;;;;;;;6.20;1.47;;;14.60;99.90;;;;;;5079469;28;20036;-61
2023/10/08 08:55:13;;;;;;;7.18;1.88;;;14.70;99.90;;;;;;5080741;28;20032;-61
2023/10/08 08:57:41;;;;;;;8.95;2.05;;;14.70;99.90;;;;;;5080765;28;20032;-61
2023/10/08 09:00:10;;;;;;;5.20;1.60;;;14.70;99.90;;;;;;5077447;28;20484;-59
2023/10/08 09:02:38;;;;;;;8.52;1.83;;;14.80;99.90;;;;;;5079411;28;20578;-60
2023/10/08 09:05:23;;;;;;;6.05;1.88;;;14.80;99.90;;;;;;5079561;28;20135;-62
2023/10/08 09:08:07;;;;;;;6.80;1.70;;;14.90;99.90;;;;;;5079604;28;20562;-60
2023/10/08 09:10:38;;;;;;;5.22;1.50;;;14.90;99.90;;;;;;5079732;28;20056;-59
2023/10/08 09:13:05;;;;;;;7.05;2.30;;;14.90;99.90;;;;;;5079284;28;20036;-61
2023/10/08 09:15:34;;;;;;;8.40;1.60;;;14.90;99.90;;;;;;5079790;28;20050;-60
2023/10/08 09:18:00;;;;;;;7.05;1.20;;;14.90;99.90;;;;;;5078931;28;20039;-60
2023/10/08 09:20:27;;;;;;;7.82;1.92;;;14.90;99.90;;;;;;5081425;28;20101;-61
2023/10/08 09:23:12;;;;;;;7.97;1.70;;;15.00;99.90;;;;;;5088499;28;20040;-60
2023/10/08 09:25:43;;;;;;;6.97;1.50;;;15.00;99.90;;;;;;5087655;28;20366;-60
2023/10/08 09:28:12;;;;;;;7.55;1.73;;;15.00;99.90;;;;;;5088404;28;20043;-62
2023/10/08 09:30:39;;;;;;;7.75;1.98;;;15.00;99.90;;;;;;5090091;28;20071;-61
2023/10/08 09:33:07;;;;;;;8.02;1.48;;;15.10;99.90;;;;;;5091692;28;20126;-62
2023/10/08 09:35:33;;;;;;;8.27;1.67;;;15.10;99.90;;;;;;5091611;28;20035;-61
2023/10/08 09:38:04;;;;;;;7.22;1.73;;;15.20;99.90;;;;;;5090925;28;20032;-60
2023/10/08 09:40:30;;;;;;;10.25;2.03;;;15.20;99.90;;;;;;5091316;28;20445;-62
2023/10/08 09:42:56;;;;;;;9.60;2.00;;;15.20;99.90;;;;;;5091101;28;20369;-59
2023/10/08 09:45:22;;;;;;;8.45;1.48;;;15.30;99.90;;;;;;5091538;28;20457;-62
2023/10/08 09:47:55;;;;;;;7.50;1.40;;;15.20;99.90;;;;;;5089892;28;20079;-61
2023/10/08 09:50:32;;;;;;;6.68;1.60;;;15.30;99.90;;;;;;5089973;28;20123;-63
2023/10/08 09:53:16;;;;;;;9.38;1.58;;;15.30;99.90;;;;;;5088503;28;20028;-60
2023/10/08 09:55:55;;;;;;;6.22;1.00;;;15.30;99.90;;;;;;5090164;28;20397;-61
2023/10/08 09:58:25;;;;;;;7.30;1.67;;;15.40;99.90;;;;;;5090670;28;20024;-63
2023/10/08 10:00:54;;;;;;;6.40;1.10;;;15.40;99.90;;;;;;5088221;28;20453;-61
2023/10/08 10:03:22;;;;;;;6.43;1.52;;;15.50;99.90;;;;;;5091183;28;20471;-61
2023/10/08 10:05:51;;;;;;;6.95;1.48;;;15.60;99.90;;;;;;5088961;28;20067;-62
2023/10/08 10:08:17;;;;;;;6.45;1.70;;;15.80;99.90;;;;;;5090585;28;20063;-60
2023/10/08 10:10:47;;;;;;;6.88;1.40;;;15.90;99.90;;;;;;5089924;28;20040;-60
2023/10/08 10:13:16;;;;;;;7.65;1.50;;;16.00;99.90;;;;;;5089893;28;20075;-64
2023/10/08 10:15:44;;;;;;;7.15;1.60;;;16.20;99.90;;;;;;5089764;28;20047;-63
2023/10/08 10:18:25;;;;;;;7.43;1.50;;;16.30;99.90;;;;;;5089568;28;20111;-63
2023/10/08 10:21:00;;;;;;;5.45;1.25;;;16.40;99.90;;;;;;5089560;28;20044;-60
2023/10/08 10:23:42;;;;;;;6.78;1.48;;;16.50;99.90;;;;;;5087499;28;20043;-60
2023/10/08 10:26:30;;;;;;;7.65;1.70;;;16.60;99.90;;;;;;5086861;28;20044;-61
2023/10/08 10:29:14;;;;;;;6.63;1.27;;;16.60;99.90;;;;;;5095278;28;20036;-60
2023/10/08 10:31:46;;;;;;;7.25;1.58;;;16.60;99.90;;;;;;5087947;28;20040;-59
2023/10/08 10:34:15;;;;;;;7.72;1.63;;;16.60;99.90;;;;;;5088169;28;20032;-61
2023/10/08 10:36:42;;;;;;;9.52;1.17;;;16.60;99.90;;;;;;5094461;28;20043;-60
2023/10/08 10:39:16;;;;;;;6.68;1.55;;;16.60;99.90;;;;;;5088807;28;22730;-62
2023/10/08 10:41:51;;;;;;;7.40;1.40;;;16.50;99.90;;;;;;5092803;28;20190;-61
2023/10/08 10:44:17;;;;;;;7.10;1.30;;;16.50;99.90;;;;;;5090312;28;20039;-62
2023/10/08 10:46:50;;;;;;;6.90;1.60;;;16.50;99.90;;;;;;5083363;28;20550;-62
2023/10/08 10:49:30;;;;;;;7.60;1.50;;;16.60;99.90;;;;;;5088545;28;20036;-59
2023/10/08 10:51:58;;;;;;;8.18;1.83;;;16.50;99.90;;;;;;5088731;28;20274;-60
2023/10/08 10:54:25;;;;;;;9.25;1.60;;;16.50;99.90;;;;;;5088286;28;20514;-60
2023/10/08 10:57:03;;;;;;;9.90;1.42;;;16.50;99.90;;;;;;5090140;28;20072;-59
2023/10/08 10:59:37;;;;;;;6.32;1.40;;;16.50;99.90;;;;;;5092463;28;20083;-59
2023/10/08 11:02:20;;;;;;;5.72;1.30;;;16.50;99.90;;;;;;5092419;28;20119;-62
2023/10/08 11:04:49;;;;;;;7.68;1.42;;;16.60;99.90;;;;;;5092150;28;20039;-60
2023/10/08 11:07:19;;;;;;;5.40;1.27;;;16.80;99.90;;;;;;5089719;28;20040;-62
2023/10/08 11:09:47;;;;;;;8.00;1.33;;;17.00;99.90;;;;;;5091655;28;20601;-63
2023/10/08 11:12:18;;;;;;;5.18;1.30;;;17.10;99.90;;;;;;5095055;28;20078;-63
2023/10/08 11:14:47;;;;;;;8.48;1.35;;;17.10;99.90;;;;;;5093914;28;20028;-61
2023/10/08 11:17:15;;;;;;;8.68;1.40;;;17.00;99.90;;;;;;5103489;28;20043;-61
2023/10/08 11:19:48;;;;;;;7.72;1.50;;;16.90;99.90;;;;;;5107524;28;20389;-61
2023/10/08 11:22:18;;;;;;;8.52;1.40;;;17.00;99.90;;;;;;5096879;28;20036;-58
2023/10/08 11:24:47;;;;;;;9.13;1.52;;;17.10;99.90;;;;;;5101661;28;20074;-62
2023/10/08 11:27:28;;;;;;;9.82;1.73;;;17.10;99.90;;;;;;5104670;28;20453;-60
2023/10/08 11:30:00;;;;;;;8.13;1.50;;;17.20;99.90;;;;;;5108131;28;20180;-63
2023/10/08 11:32:26;;;;;;;10.52;1.30;;;17.10;99.90;;;;;;5104075;28;20043;-63
2023/10/08 11:34:59;;;;;;;7.88;1.33;;;17.10;99.90;;;;;;5103032;28;20032;-61
2023/10/08 11:37:35;;;;;;;5.50;1.30;;;17.10;99.90;;;;;;5100022;28;20101;-63
2023/10/08 11:40:48;;;;;;;7.28;1.55;;;17.20;99.90;;;;;;5109977;28;20441;-62
2023/10/08 11:43:03;;;;;;;7.93;1.58;;;17.30;99.90;;;;;;5100891;28;20117;-63
2023/10/08 11:45:38;;;;;;;7.28;1.50;;;17.40;99.90;;;;;;5104591;28;20035;-62
2023/10/08 11:48:11;;;;;;;6.03;1.75;;;17.50;99.90;;;;;;5103137;28;20039;-64
2023/10/08 11:50:38;;;;;;;8.07;1.80;;;17.50;99.90;;;;;;5104542;28;20110;-59
2023/10/08 11:53:05;;;;;;;7.60;1.58;;;17.60;99.90;;;;;;5106827;28;20039;-59
2023/10/08 11:55:37;;;;;;;6.85;1.17;;;17.70;99.90;;;;;;5105416;28;20036;-61
2023/10/08 11:58:17;;;;;;;9.40;1.60;;;17.70;99.90;;;;;;5103117;28;20078;-61
2023/10/08 12:00:44;;;;;;;8.35;1.63;;;17.80;99.90;;;;;;5110073;28;20123;-61
2023/10/08 12:03:11;;;;;;;8.77;1.33;;;17.80;99.90;;;;;;5101252;28;20478;-60
2023/10/08 12:05:40;;;;;;;6.82;1.60;;;17.90;99.90;;;;;;5093407;28;20067;-60
2023/10/08 12:08:08;;;;;;;5.88;1.38;;;18.10;99.90;;;;;;5089007;28;20069;-58
2023/10/08 12:10:34;;;;;;;10.02;1.38;;;18.20;99.90;;;;;;5090386;28;20048;-63
2023/10/08 12:13:00;;;;;;;6.47;1.50;;;18.40;99.90;;;;;;5093506;28;20044;-62
2023/10/08 12:15:38;;;;;;;3.95;1.10;;;18.60;99.90;;;;;;5093342;28;20092;-59
2023/10/08 12:20:49;;;;;;;8.02;1.90;;;19.00;99.90;;;;;;5079097;28;20043;-61
2023/10/08 12:23:24;;;;;;;6.65;2.08;;;19.30;99.90;;;;;;5079798;28;20491;-58
2023/10/08 12:25:55;;;;;;;5.63;1.38;;;19.30;99.90;;;;;;5078496;28;20033;-58
2023/10/08 12:28:25;;;;;;;5.28;1.30;;;19.40;99.90;;;;;;5078374;28;20071;-63
2023/10/08 12:30:55;;;;;;;7.15;1.40;;;19.50;99.90;;;;;;5079562;28;20043;-60
2023/10/08 12:33:25;;;;;;;5.97;1.10;;;19.70;99.90;;;;;;5079658;28;20123;-60
2023/10/08 12:35:55;;;;;;;6.30;1.45;;;19.80;99.90;;;;;;5079395;28;20024;-59
2023/10/08 12:38:27;;;;;;;8.15;2.00;;;19.70;99.90;;;;;;5060643;28;20514;-60
2023/10/08 12:40:54;;;;;;;8.05;1.60;;;19.80;99.90;;;;;;5075351;28;20442;-59
2023/10/08 12:43:27;;;;;;;4.93;1.20;;;19.90;99.90;;;;;;5072754;28;20110;-59
2023/10/08 12:45:54;;;;;;;7.15;1.33;;;20.00;99.90;;;;;;5071065;28;20039;-60
2023/10/08 12:48:27;;;;;;;7.75;1.20;;;20.00;99.90;;;;;;5070851;28;20040;-58
2023/10/08 12:50:56;;;;;;;5.15;1.30;;;20.10;99.90;;;;;;5075478;28;20047;-61
2023/10/08 12:53:39;;;;;;;5.80;1.20;;;20.10;99.90;;;;;;5074788;28;20044;-57
2023/10/08 12:56:15;;;;;;;5.68;1.00;;;19.80;99.90;;;;;;5073880;28;20131;-61
2023/10/08 12:58:44;;;;;;;7.22;1.40;;;19.40;99.90;;;;;;5075143;28;20401;-58
2023/10/08 13:01:14;;;;;;;5.60;1.00;;;19.20;99.90;;;;;;5074819;28;20097;-61
2023/10/08 13:03:47;;;;;;;5.70;1.10;;;19.10;99.90;;;;;;5073532;28;20028;-59
2023/10/08 13:06:22;;;;;;;7.27;1.30;;;19.30;99.90;;;;;;5075824;28;20131;-61
2023/10/08 13:08:52;;;;;;;6.43;1.92;;;19.00;99.90;;;;;;5069675;28;20038;-59
2023/10/08 13:11:22;;;;;;;7.90;1.58;;;19.00;99.90;;;;;;5073564;28;20048;-60
2023/10/08 13:13:53;;;;;;;5.50;1.23;;;18.90;99.90;;;;;;5074505;28;20067;-62
2023/10/08 13:16:21;;;;;;;6.07;1.30;;;18.90;99.90;;;;;;5076205;28;20367;-61
2023/10/08 13:18:47;;;;;;;7.15;1.33;;;18.80;99.90;;;;;;5076632;28;20036;-62
2023/10/08 13:21:13;;;;;;;5.15;1.27;;;18.80;99.90;;;;;;5075352;28;20472;-61
2023/10/08 13:23:39;;;;;;;5.85;1.38;;;18.70;99.90;;;;;;5077313;28;20061;-59
2023/10/08 13:26:07;;;;;;;5.05;1.10;;;18.60;99.90;;;;;;5074307;28;20039;-61
2023/10/08 13:28:36;;;;;;;6.60;1.25;;;18.50;99.90;;;;;;5072730;28;20618;-62
2023/10/08 13:31:11;;;;;;;7.57;1.27;;;18.60;99.90;;;;;;5101210;27;20973;-60
2023/10/08 13:33:42;;;;;;;6.90;1.20;;;18.70;99.90;;;;;;5074980;28;20391;-60
2023/10/08 13:36:13;;;;;;;5.00;1.20;;;18.70;99.90;;;;;;5074507;28;20032;-61
2023/10/08 13:38:40;;;;;;;8.18;1.38;;;18.70;99.90;;;;;;5073659;28;20089;-60
2023/10/08 13:41:14;;;;;;;6.95;1.30;;;18.60;99.90;;;;;;5072371;28;20040;-61
2023/10/08 13:43:59;;;;;;;6.03;1.20;;;18.50;99.90;;;;;;5074907;28;20064;-61
2023/10/08 13:46:25;;;;;;;5.30;1.30;;;18.50;99.90;;;;;;5074345;28;20120;-60
2023/10/08 13:48:51;;;;;;;6.18;1.00;;;18.40;99.90;;;;;;5074595;28;20487;-60